createdAt,value
2018-01-21T00:00:04.014Z,93.20
2018-01-21T00:02:31.440Z,93.20
2018-01-21T00:04:58.895Z,93.20
2018-01-21T00:07:26.355Z,93.20
2018-01-21T00:09:53.811Z,93.00
2018-01-21T00:12:21.240Z,92.90
2018-01-21T00:14:49.036Z,92.70
2018-01-21T00:17:16.456Z,92.50
2018-01-21T00:19:43.940Z,92.50
2018-01-21T00:22:11.384Z,92.50
2018-01-21T00:24:38.812Z,92.40
2018-01-21T00:27:07.008Z,92.50
2018-01-21T00:29:34.488Z,92.50
2018-01-21T00:32:01.950Z,92.60
2018-01-21T00:34:29.388Z,92.80
2018-01-21T00:36:56.823Z,92.80
2018-01-21T00:39:25.038Z,92.80
2018-01-21T00:41:52.467Z,92.80
2018-01-21T00:44:19.904Z,92.70
2018-01-21T00:46:48.119Z,92.70
2018-01-21T00:49:15.547Z,92.70
2018-01-21T00:51:42.996Z,92.70
2018-01-21T00:54:11.217Z,92.60
2018-01-21T00:56:38.642Z,92.60
2018-01-21T00:59:06.081Z,92.50
2018-01-21T01:01:34.280Z,92.50
2018-01-21T01:04:01.699Z,92.50
2018-01-21T01:06:29.216Z,92.50
2018-01-21T01:08:56.667Z,92.50
2018-01-21T01:11:24.108Z,92.40
2018-01-21T01:13:51.548Z,92.40
2018-01-21T01:16:19.736Z,92.50
2018-01-21T01:18:47.172Z,92.50
2018-01-21T01:21:15.696Z,92.40
2018-01-21T01:23:43.128Z,92.40
2018-01-21T01:26:10.576Z,92.40
2018-01-21T01:28:39.091Z,92.40
2018-01-21T01:31:06.526Z,92.40
2018-01-21T01:33:34.008Z,92.30
2018-01-21T01:36:01.452Z,92.30
2018-01-21T01:38:28.879Z,92.20
2018-01-21T01:40:57.091Z,92.30
2018-01-21T01:43:24.839Z,92.30
2018-01-21T01:45:52.268Z,92.40
2018-01-21T01:48:20.484Z,92.50
2018-01-21T01:50:47.922Z,92.50
2018-01-21T01:53:15.351Z,92.40
2018-01-21T01:55:43.576Z,92.80
2018-01-21T01:58:11.344Z,92.50
2018-01-21T02:00:38.800Z,92.50
2018-01-21T02:03:06.238Z,92.50
2018-01-21T02:05:33.680Z,92.50
2018-01-21T02:08:01.110Z,92.50
2018-01-21T02:10:28.540Z,92.50
2018-01-21T02:12:55.976Z,92.50
2018-01-21T02:15:23.437Z,92.50
2018-01-21T02:17:50.904Z,92.50
2018-01-21T02:20:18.664Z,92.50
2018-01-21T02:22:46.087Z,92.70
2018-01-21T02:25:13.507Z,92.30
2018-01-21T02:27:41.027Z,92.40
2018-01-21T02:30:08.497Z,92.50
2018-01-21T02:32:35.949Z,92.50
2018-01-21T02:35:03.375Z,92.50
2018-01-21T02:37:30.863Z,92.50
2018-01-21T02:39:58.288Z,92.40
2018-01-21T02:42:25.983Z,92.30
2018-01-21T02:44:53.408Z,92.30
2018-01-21T02:47:20.876Z,92.30
2018-01-21T02:49:48.362Z,92.30
2018-01-21T02:52:15.792Z,92.30
2018-01-21T02:54:43.220Z,92.30
2018-01-21T02:57:11.419Z,92.30
2018-01-21T02:59:38.898Z,92.30
2018-01-21T03:02:06.357Z,92.30
2018-01-21T03:04:34.218Z,92.30
2018-01-21T03:07:01.687Z,92.20
2018-01-21T03:09:29.136Z,92.20
2018-01-21T03:11:56.695Z,92.50
2018-01-21T03:14:24.159Z,92.30
2018-01-21T03:16:51.584Z,92.30
2018-01-21T03:19:19.280Z,92.30
2018-01-21T03:21:46.757Z,92.20
2018-01-21T03:24:14.163Z,92.20
2018-01-21T03:26:42.767Z,92.30
2018-01-21T03:29:10.200Z,92.30
2018-01-21T03:31:37.683Z,92.20
2018-01-21T03:34:05.132Z,92.20
2018-01-21T03:36:32.567Z,92.30
2018-01-21T03:38:59.992Z,92.30
2018-01-21T03:41:27.720Z,92.30
2018-01-21T03:43:55.176Z,92.40
2018-01-21T03:46:22.607Z,92.40
2018-01-21T03:48:50.039Z,92.30
2018-01-21T03:51:18.271Z,92.20
2018-01-21T03:53:45.698Z,92.20
2018-01-21T03:56:13.488Z,92.30
2018-01-21T03:58:40.936Z,92.30
2018-01-21T04:01:08.367Z,92.30
2018-01-21T04:03:36.563Z,92.20
2018-01-21T04:06:03.984Z,92.20
2018-01-21T04:08:32.204Z,92.20
2018-01-21T04:10:59.642Z,92.20
2018-01-21T04:13:27.117Z,92.30
2018-01-21T04:15:54.550Z,92.30
2018-01-21T04:18:22.235Z,92.30
2018-01-21T04:20:49.660Z,92.30
2018-01-21T04:23:17.861Z,92.20
2018-01-21T04:25:45.296Z,92.20
2018-01-21T04:28:12.724Z,92.20
2018-01-21T04:30:40.150Z,92.20
2018-01-21T04:33:07.899Z,92.20
2018-01-21T04:35:35.360Z,92.10
2018-01-21T04:38:02.836Z,92.10
2018-01-21T04:40:30.372Z,92.00
2018-01-21T04:42:57.832Z,92.00
2018-01-21T04:45:25.287Z,91.90
2018-01-21T04:47:52.747Z,91.90
2018-01-21T04:50:20.203Z,91.80
2018-01-21T04:52:47.627Z,91.90
2018-01-21T04:55:16.140Z,91.90
2018-01-21T04:57:43.592Z,91.90
2018-01-21T05:00:11.055Z,91.90
2018-01-21T05:02:38.488Z,92.00
2018-01-21T05:05:05.976Z,92.30
2018-01-21T05:07:33.432Z,92.10
2018-01-21T05:10:00.889Z,92.10
2018-01-21T05:12:28.339Z,92.10
2018-01-21T05:14:55.759Z,92.10
2018-01-21T05:17:24.187Z,92.20
2018-01-21T05:19:51.631Z,92.20
2018-01-21T05:22:19.084Z,92.20
2018-01-21T05:24:46.504Z,92.20
2018-01-21T05:27:14.693Z,92.20
2018-01-21T05:29:42.120Z,92.10
2018-01-21T05:32:09.867Z,92.00
2018-01-21T05:34:37.297Z,92.30
2018-01-21T05:37:04.731Z,91.90
2018-01-21T05:39:32.173Z,91.80
2018-01-21T05:42:00.384Z,92.00
2018-01-21T05:44:27.837Z,92.00
2018-01-21T05:46:55.483Z,92.10
2018-01-21T05:49:22.908Z,92.10
2018-01-21T05:51:50.328Z,92.00
2018-01-21T05:54:17.770Z,92.00
2018-01-21T05:56:45.254Z,92.00
2018-01-21T05:59:12.681Z,92.00
2018-01-21T06:01:40.136Z,92.00
2018-01-21T06:04:07.558Z,92.00
2018-01-21T06:06:35.782Z,91.90
2018-01-21T06:09:03.216Z,91.90
2018-01-21T06:11:30.636Z,91.80
2018-01-21T06:13:58.152Z,91.70
2018-01-21T06:16:25.920Z,91.60
2018-01-21T06:18:53.340Z,91.60
2018-01-21T06:21:20.776Z,91.80
2018-01-21T06:23:49.004Z,92.20
2018-01-21T06:26:16.470Z,91.90
2018-01-21T06:28:43.895Z,92.10
2018-01-21T06:31:11.373Z,92.10
2018-01-21T06:33:38.811Z,92.20
2018-01-21T06:36:06.287Z,92.20
2018-01-21T06:38:33.740Z,92.20
2018-01-21T06:41:01.172Z,92.20
2018-01-21T06:43:28.602Z,92.30
2018-01-21T06:45:56.040Z,92.30
2018-01-21T06:48:23.568Z,92.40
2018-01-21T06:50:50.988Z,92.30
2018-01-21T06:53:19.196Z,92.30
2018-01-21T06:55:46.629Z,92.30
2018-01-21T06:58:14.844Z,92.40
2018-01-21T07:00:42.292Z,92.40
2018-01-21T07:03:09.747Z,92.40
2018-01-21T07:05:37.172Z,92.40
2018-01-21T07:08:04.610Z,92.40
2018-01-21T07:10:32.084Z,92.50
2018-01-21T07:12:59.458Z,92.50
2018-01-21T07:15:27.236Z,92.40
2018-01-21T07:17:54.721Z,92.50
2018-01-21T07:20:22.152Z,92.50
2018-01-21T07:22:49.612Z,92.50
2018-01-21T07:25:17.064Z,92.50
2018-01-21T07:27:44.488Z,92.50
2018-01-21T07:30:12.936Z,92.40
2018-01-21T07:32:40.370Z,92.40
2018-01-21T07:35:07.788Z,92.50
2018-01-21T07:37:35.219Z,92.60
2018-01-21T07:40:02.662Z,92.60
2018-01-21T07:42:32.757Z,92.70
2018-01-21T07:45:00.507Z,92.70
2018-01-21T07:47:27.968Z,92.70
2018-01-21T07:49:55.394Z,92.80
2018-01-21T07:52:23.589Z,92.80
2018-01-21T07:54:51.060Z,92.80
2018-01-21T07:57:18.485Z,92.80
2018-01-21T07:59:46.689Z,92.70
2018-01-21T08:02:14.149Z,92.70
2018-01-21T08:04:41.604Z,92.60
2018-01-21T08:07:09.063Z,92.50
2018-01-21T08:09:36.515Z,92.50
2018-01-21T08:12:03.970Z,92.50
2018-01-21T08:14:31.480Z,92.50
2018-01-21T08:16:58.863Z,92.50
2018-01-21T08:19:26.284Z,92.50
2018-01-21T08:21:54.520Z,92.30
2018-01-21T08:24:21.940Z,92.30
2018-01-21T08:26:50.148Z,92.30
2018-01-21T08:29:17.587Z,92.30
2018-01-21T08:31:45.069Z,92.20
2018-01-21T08:34:18.251Z,92.30
2018-01-21T08:36:51.353Z,92.40
2018-01-21T08:39:24.853Z,92.50
2018-01-21T08:42:07.152Z,92.60
2018-01-21T08:44:34.604Z,92.90
2018-01-21T08:47:02.031Z,92.70
2018-01-21T08:49:29.456Z,92.70
2018-01-21T08:51:56.896Z,92.70
2018-01-21T08:54:25.084Z,92.80
2018-01-21T08:56:52.564Z,92.80
2018-01-21T08:59:20.020Z,92.80
2018-01-21T09:01:47.448Z,92.80
2018-01-21T09:04:15.656Z,92.90
2018-01-21T09:06:43.403Z,92.90
2018-01-21T09:09:10.876Z,92.90
2018-01-21T09:11:38.292Z,93.00
2018-01-21T09:14:06.603Z,93.10
2018-01-21T09:16:34.004Z,93.00
2018-01-21T09:19:01.530Z,93.10
2018-01-21T09:21:29.464Z,93.10
2018-01-21T09:23:56.897Z,93.10
2018-01-21T09:26:24.404Z,93.20
2018-01-21T09:28:51.867Z,93.20
2018-01-21T09:31:19.317Z,93.20
2018-01-21T09:33:46.724Z,93.20
2018-01-21T09:36:14.164Z,93.20
2018-01-21T09:38:41.692Z,93.20
2018-01-21T09:41:09.144Z,93.20
2018-01-21T09:43:36.560Z,93.10
2018-01-21T09:46:05.586Z,93.10
2018-01-21T09:48:33.014Z,93.10
2018-01-21T09:51:01.223Z,93.10
2018-01-21T09:53:28.690Z,93.10
2018-01-21T09:55:56.115Z,93.10
2018-01-21T09:58:23.809Z,93.00
2018-01-21T10:00:51.232Z,93.10
2018-01-21T10:03:18.719Z,93.00
2018-01-21T10:05:46.152Z,93.00
2018-01-21T10:08:13.580Z,93.00
2018-01-21T10:10:41.009Z,92.90
2018-01-21T10:13:08.752Z,92.80
2018-01-21T10:15:36.214Z,92.70
2018-01-21T10:18:03.636Z,92.60
2018-01-21T10:20:31.835Z,92.50
2018-01-21T10:22:59.251Z,92.50
2018-01-21T10:25:27.473Z,92.50
2018-01-21T10:27:54.928Z,92.50
2018-01-21T10:30:22.388Z,92.50
2018-01-21T10:32:49.863Z,92.50
2018-01-21T10:35:17.280Z,92.40
2018-01-21T10:37:44.763Z,92.40
2018-01-21T10:40:12.190Z,92.50
2018-01-21T10:42:39.624Z,92.40
2018-01-21T10:45:07.848Z,92.40
2018-01-21T10:47:35.308Z,92.40
2018-01-21T10:50:02.744Z,92.40
2018-01-21T10:52:30.176Z,92.40
2018-01-21T10:54:58.392Z,92.20
2018-01-21T10:57:25.852Z,92.20
2018-01-21T10:59:53.275Z,92.20
2018-01-21T11:02:20.793Z,92.20
2018-01-21T11:04:48.231Z,92.20
2018-01-21T11:07:15.680Z,92.20
2018-01-21T11:09:43.101Z,92.10
2018-01-21T11:12:11.304Z,91.90
2018-01-21T11:14:38.735Z,91.90
2018-01-21T11:17:06.919Z,91.70
2018-01-21T11:19:34.359Z,91.70
2018-01-21T11:22:02.548Z,91.60
2018-01-21T11:24:29.967Z,91.60
2018-01-21T11:26:57.484Z,91.40
2018-01-21T11:29:24.944Z,91.40
2018-01-21T11:31:53.313Z,91.30
2018-01-21T11:34:20.756Z,91.20
2018-01-21T11:36:48.245Z,91.10
2018-01-21T11:39:15.705Z,90.90
2018-01-21T11:41:43.468Z,90.80
2018-01-21T11:44:10.905Z,90.70
2018-01-21T11:46:38.313Z,90.60
2018-01-21T11:49:05.834Z,90.50
2018-01-21T11:51:33.265Z,90.40
2018-01-21T11:54:00.769Z,90.30
2018-01-21T11:56:28.209Z,90.20
2018-01-21T11:58:55.656Z,90.10
2018-01-21T12:01:23.118Z,90.10
2018-01-21T12:03:50.576Z,90.00
2018-01-21T12:06:18.008Z,89.90
2018-01-21T12:08:45.489Z,89.60
2018-01-21T12:11:12.946Z,89.00
2018-01-21T12:13:40.371Z,88.50
2018-01-21T12:16:07.797Z,88.10
2018-01-21T12:18:35.258Z,87.90
2018-01-21T12:21:02.773Z,87.80
2018-01-21T12:23:30.200Z,87.60
2018-01-21T12:25:58.400Z,86.70
2018-01-21T12:28:25.860Z,86.70
2018-01-21T12:30:53.330Z,86.80
2018-01-21T12:33:20.769Z,86.60
2018-01-21T12:35:48.232Z,86.60
2018-01-21T12:38:15.688Z,86.40
2018-01-21T12:40:43.120Z,86.30
2018-01-21T12:43:10.600Z,86.30
2018-01-21T12:45:38.020Z,86.10
2018-01-21T12:48:06.233Z,85.30
2018-01-21T12:50:33.661Z,85.20
2018-01-21T12:53:01.854Z,84.60
2018-01-21T12:55:29.316Z,84.60
2018-01-21T12:57:56.732Z,84.50
2018-01-21T13:00:24.956Z,84.50
2018-01-21T13:02:52.392Z,84.50
2018-01-21T13:05:19.820Z,84.50
2018-01-21T13:07:48.017Z,84.60
2018-01-21T13:10:15.496Z,84.50
2018-01-21T13:12:42.960Z,84.20
2018-01-21T13:15:10.409Z,84.00
2018-01-21T13:17:37.868Z,83.70
2018-01-21T13:20:05.296Z,83.40
2018-01-21T13:22:32.784Z,83.10
2018-01-21T13:25:00.240Z,82.90
2018-01-21T13:27:27.743Z,82.90
2018-01-21T13:29:55.152Z,82.90
2018-01-21T13:32:22.612Z,82.90
2018-01-21T13:34:50.040Z,83.00
2018-01-21T13:37:17.524Z,83.10
2018-01-21T13:39:44.984Z,83.20
2018-01-21T13:42:12.422Z,83.10
2018-01-21T13:44:39.896Z,83.00
2018-01-21T13:47:07.332Z,82.90
2018-01-21T13:49:34.848Z,82.80
2018-01-21T13:52:02.372Z,83.10
2018-01-21T13:54:29.816Z,82.70
2018-01-21T13:56:57.228Z,82.70
2018-01-21T13:59:25.416Z,82.50
2018-01-21T14:01:53.616Z,83.20
2018-01-21T14:04:21.044Z,82.50
2018-01-21T14:06:49.241Z,82.60
2018-01-21T14:09:16.722Z,82.60
2018-01-21T14:11:44.139Z,82.40
2018-01-21T14:14:12.358Z,82.60
2018-01-21T14:16:39.812Z,82.60
2018-01-21T14:19:07.262Z,82.70
2018-01-21T14:21:34.735Z,82.80
2018-01-21T14:24:02.493Z,82.90
2018-01-21T14:26:29.949Z,82.90
2018-01-21T14:28:57.376Z,82.80
2018-01-21T14:31:24.860Z,82.90
2018-01-21T14:33:52.316Z,83.00
2018-01-21T14:36:19.805Z,83.20
2018-01-21T14:38:47.240Z,83.10
2018-01-21T14:41:14.704Z,83.20
2018-01-21T14:43:42.207Z,83.30
2018-01-21T14:46:10.414Z,83.50
2018-01-21T14:48:37.876Z,83.60
2018-01-21T14:51:05.336Z,84.30
2018-01-21T14:53:32.791Z,83.80
2018-01-21T14:56:00.252Z,84.00
2018-01-21T14:58:27.708Z,84.20
2018-01-21T15:00:55.157Z,84.20
2018-01-21T15:03:22.581Z,84.50
2018-01-21T15:05:50.770Z,84.80
2018-01-21T15:08:18.456Z,84.80
2018-01-21T15:10:45.884Z,84.90
2018-01-21T15:13:13.310Z,85.00
2018-01-21T15:15:40.836Z,85.00
2018-01-21T15:18:08.284Z,85.10
2018-01-21T15:20:35.712Z,85.20
2018-01-21T15:23:03.535Z,85.30
2018-01-21T15:25:30.959Z,85.20
2018-01-21T15:27:58.420Z,85.30
2018-01-21T15:30:25.893Z,85.30
2018-01-21T15:32:53.282Z,85.40
2018-01-21T15:35:20.704Z,85.50
2018-01-21T15:37:48.148Z,85.60
2018-01-21T15:40:15.580Z,85.70
2018-01-21T15:42:43.072Z,85.80
2018-01-21T15:45:10.511Z,86.00
2018-01-21T15:47:37.972Z,86.10
2018-01-21T15:50:05.408Z,86.20
2018-01-21T15:52:32.866Z,86.40
2018-01-21T15:55:00.292Z,86.60
2018-01-21T15:57:27.804Z,86.70
2018-01-21T15:59:56.980Z,86.80
2018-01-21T16:02:24.459Z,87.00
2018-01-21T16:04:51.885Z,87.10
2018-01-21T16:07:20.403Z,87.40
2018-01-21T16:09:47.824Z,87.40
2018-01-21T16:12:15.302Z,87.50
2018-01-21T16:14:42.691Z,87.60
2018-01-21T16:17:10.180Z,87.80
2018-01-21T16:19:37.637Z,87.90
2018-01-21T16:22:05.865Z,88.20
2018-01-21T16:24:33.328Z,88.10
2018-01-21T16:27:00.760Z,88.20
2018-01-21T16:29:28.206Z,88.40
2018-01-21T16:31:55.636Z,88.60
2018-01-21T16:34:23.065Z,88.60
2018-01-21T16:36:50.511Z,88.40
2018-01-21T16:39:17.919Z,89.00
2018-01-21T16:41:46.111Z,89.10
2018-01-21T16:44:13.556Z,89.10
2018-01-21T16:46:41.050Z,89.30
2018-01-21T16:49:08.511Z,89.40
2018-01-21T16:51:35.956Z,89.50
2018-01-21T16:54:03.380Z,89.60
2018-01-21T16:56:31.564Z,89.70
2018-01-21T16:58:59.048Z,89.70
2018-01-21T17:01:26.507Z,89.90
2018-01-21T17:03:53.978Z,90.00
2018-01-21T17:06:21.421Z,90.00
2018-01-21T17:08:48.841Z,90.10
2018-01-21T17:11:17.028Z,90.10
2018-01-21T17:13:44.461Z,90.10
2018-01-21T17:16:12.668Z,90.20
2018-01-21T17:18:40.136Z,90.20
2018-01-21T17:21:07.586Z,90.20
2018-01-21T17:23:35.004Z,90.30
2018-01-21T17:26:03.200Z,90.40
2018-01-21T17:28:30.683Z,90.30
2018-01-21T17:30:58.140Z,90.40
2018-01-21T17:33:25.590Z,90.40
2018-01-21T17:35:53.255Z,90.40
2018-01-21T17:38:20.710Z,90.50
2018-01-21T17:40:48.173Z,90.50
2018-01-21T17:43:15.618Z,90.60
2018-01-21T17:45:43.044Z,90.60
2018-01-21T17:48:11.261Z,91.00
2018-01-21T17:50:38.740Z,90.70
2018-01-21T17:53:06.168Z,90.70
2018-01-21T17:55:33.632Z,90.70
2018-01-21T17:58:01.092Z,90.70
2018-01-21T18:00:28.524Z,90.80
2018-01-21T18:02:56.012Z,90.80
2018-01-21T18:05:23.457Z,90.80
2018-01-21T18:07:50.884Z,90.80
2018-01-21T18:10:19.101Z,90.80
2018-01-21T18:12:46.874Z,90.80
2018-01-21T18:15:14.292Z,90.90
2018-01-21T18:17:41.774Z,90.90
2018-01-21T18:20:09.537Z,90.90
2018-01-21T18:22:36.997Z,90.90
2018-01-21T18:25:04.453Z,90.90
2018-01-21T18:27:31.901Z,90.90
2018-01-21T18:29:59.341Z,90.90
2018-01-21T18:32:27.525Z,90.90
2018-01-21T18:34:54.996Z,90.90
2018-01-21T18:37:22.476Z,90.90
2018-01-21T18:39:49.912Z,90.90
2018-01-21T18:42:17.359Z,90.90
2018-01-21T18:44:44.829Z,90.90
2018-01-21T18:47:12.256Z,90.90
2018-01-21T18:49:39.698Z,90.90
2018-01-21T18:52:07.920Z,90.90
2018-01-21T18:54:35.340Z,90.90
2018-01-21T18:57:03.040Z,90.90
2018-01-21T18:59:30.467Z,90.90
2018-01-21T19:01:57.901Z,90.90
2018-01-21T19:04:26.113Z,91.00
2018-01-21T19:06:53.544Z,91.30
2018-01-21T19:09:20.976Z,90.90
2018-01-21T19:11:48.496Z,91.00
2018-01-21T19:14:15.928Z,91.00
2018-01-21T19:16:43.354Z,91.00
2018-01-21T19:19:11.571Z,91.10
2018-01-21T19:21:39.042Z,91.00
2018-01-21T19:24:06.498Z,91.00
2018-01-21T19:26:33.924Z,91.00
2018-01-21T19:29:01.369Z,91.00
2018-01-21T19:31:29.564Z,91.00
2018-01-21T19:33:57.009Z,91.00
2018-01-21T19:36:24.488Z,91.00
2018-01-21T19:38:54.933Z,91.00
2018-01-21T19:41:38.174Z,91.00
2018-01-21T19:44:21.265Z,91.00
2018-01-21T19:46:48.704Z,91.00
2018-01-21T19:49:16.184Z,91.00
2018-01-21T19:51:43.638Z,91.00
2018-01-21T19:54:11.194Z,91.00
2018-01-21T19:56:39.474Z,91.00
2018-01-21T19:59:06.963Z,91.00
2018-01-21T20:01:34.400Z,91.00
2018-01-21T20:04:01.848Z,91.00
2018-01-21T20:06:29.303Z,91.00
2018-01-21T20:08:56.968Z,91.00
2018-01-21T20:11:24.406Z,91.00
2018-01-21T20:13:51.838Z,91.00
2018-01-21T20:16:20.056Z,91.00
2018-01-21T20:18:47.496Z,90.90
2018-01-21T20:21:14.995Z,90.90
2018-01-21T20:23:42.532Z,90.90
2018-01-21T20:26:09.968Z,90.90
2018-01-21T20:28:37.400Z,90.90
2018-01-21T20:31:05.637Z,90.80
2018-01-21T20:33:33.071Z,90.80
2018-01-21T20:36:00.496Z,90.80
2018-01-21T20:38:28.793Z,90.70
2018-01-21T20:40:56.216Z,90.70
2018-01-21T20:43:24.416Z,91.00
2018-01-21T20:45:52.112Z,90.70
2018-01-21T20:48:19.567Z,90.70
2018-01-21T20:50:47.046Z,90.70
2018-01-21T20:53:20.255Z,90.70
2018-01-21T20:55:47.775Z,90.60
2018-01-21T20:58:15.227Z,90.60
2018-01-21T21:00:42.689Z,90.60
2018-01-21T21:03:10.101Z,90.60
2018-01-21T21:05:38.305Z,90.70
2018-01-21T21:08:05.747Z,90.70
2018-01-21T21:10:33.242Z,90.70
2018-01-21T21:13:00.713Z,91.00
2018-01-21T21:15:28.448Z,90.70
2018-01-21T21:17:55.877Z,90.70
2018-01-21T21:20:23.376Z,90.70
2018-01-21T21:22:50.820Z,90.70
2018-01-21T21:25:18.274Z,90.70
2018-01-21T21:27:45.740Z,90.70
2018-01-21T21:30:13.187Z,90.70
2018-01-21T21:32:40.666Z,90.70
2018-01-21T21:35:08.096Z,91.00
2018-01-21T21:37:35.532Z,91.10
2018-01-21T21:40:03.731Z,90.70
2018-01-21T21:42:31.160Z,90.70
2018-01-21T21:44:59.422Z,90.80
2018-01-21T21:47:26.918Z,90.80
2018-01-21T21:49:54.361Z,90.80
2018-01-21T21:52:21.859Z,90.80
2018-01-21T21:54:49.312Z,90.80
2018-01-21T21:57:16.789Z,90.80
2018-01-21T21:59:44.524Z,90.80
2018-01-21T22:02:11.944Z,90.80
2018-01-21T22:04:40.148Z,90.90
2018-01-21T22:07:07.694Z,90.90
2018-01-21T22:09:35.891Z,90.90
2018-01-21T22:12:03.337Z,91.00
2018-01-21T22:14:30.764Z,91.00
2018-01-21T22:16:58.956Z,91.00
2018-01-21T22:19:26.383Z,91.00
2018-01-21T22:21:54.642Z,91.10
2018-01-21T22:24:22.188Z,91.10
2018-01-21T22:26:49.615Z,91.10
2018-01-21T22:29:17.060Z,91.20
2018-01-21T22:31:44.492Z,91.20
2018-01-21T22:34:12.692Z,91.30
2018-01-21T22:36:40.172Z,91.30
2018-01-21T22:39:07.628Z,91.30
2018-01-21T22:41:35.051Z,91.30
2018-01-21T22:44:02.510Z,91.30
2018-01-21T22:46:29.915Z,91.30
2018-01-21T22:48:57.348Z,91.40
2018-01-21T22:51:24.816Z,91.40
2018-01-21T22:53:52.244Z,91.40
2018-01-21T22:56:19.668Z,91.40
2018-01-21T22:58:47.254Z,91.50
2018-01-21T23:01:14.721Z,91.50
2018-01-21T23:03:42.173Z,91.60
2018-01-21T23:06:09.642Z,91.60
2018-01-21T23:08:37.068Z,91.60
2018-01-21T23:11:04.544Z,91.70
2018-01-21T23:13:31.994Z,91.80
2018-01-21T23:15:59.412Z,91.80
2018-01-21T23:18:27.645Z,91.90
2018-01-21T23:20:59.604Z,91.90
2018-01-21T23:23:27.060Z,91.90
2018-01-21T23:25:54.501Z,91.90
2018-01-21T23:28:21.939Z,92.00
2018-01-21T23:30:49.373Z,92.10
2018-01-21T23:33:16.888Z,92.10
2018-01-21T23:35:44.331Z,92.10
2018-01-21T23:38:11.765Z,92.10
2018-01-21T23:40:39.192Z,92.20
2018-01-21T23:43:06.632Z,92.20
2018-01-21T23:45:34.176Z,92.30
2018-01-21T23:48:01.600Z,92.30
2018-01-21T23:50:29.046Z,92.30
2018-01-21T23:52:57.291Z,92.40
2018-01-21T23:55:24.718Z,92.40
2018-01-21T23:57:52.162Z,92.40
